首页
METAR-TAF:

METAR-TAF

机场 :

維諾, 密克罗尼西亚群岛

楚克國際機場

纬度: 07-28N, 经度: 151-51E, 海拔: 3米

当前天气观测

该预报发布于25分钟前的12:52 UTC
风速7节,风向东北
温度 28°C
湿度 89%
气压 1008 hPa
能見度: 24.1公里
少量云层高于1400英尺
散云层高于28000英尺

METAR: PTKK 171252Z 04007KT 15SM FEW014 SCT280 28/26 A2978 RMK SLP086 T02780255

时间: 23:17 (13:17 UTC)

预报

该预报发布于1小时和55分钟前的11:22 UTC
预报有效从17日的 12点(UTC)到 18日的 12点(UTC)
风速8节,风向东北
能見度: 10公里
散云层高于1400英尺
多云层高于28000英尺

TAF: PTKK 171122Z 1712/1812 04008KT P6SM SCT014 BKN280

超过4000个机场的气象观测和天气预报(METAR&TAF报告)。

可查询的气象台以黄色和红色小点在地图上表示。

将鼠标移到小点上方,可查看气象台名称。

然后点击查看天气观测和预报。

如需切换地图:点击带黑十字的绿色按钮放大地图;点击带横线的绿色按钮缩小地图;或者点击绿色箭头查看邻近地区的地图。


METAR-TAF: